sensor_id;sensor_type;location;lat;lon;timestamp;P1;durP1;ratioP1;P2;durP2;ratioP2
35757;SDS011;21879;50.110;18.900;2023-02-10T00:02:22;25.70;;;14.70;;
35757;SDS011;21879;50.110;18.900;2023-02-10T00:12:47;23.40;;;10.90;;
35757;SDS011;21879;50.110;18.900;2023-02-10T00:23:11;28.00;;;14.50;;
35757;SDS011;21879;50.110;18.900;2023-02-10T00:33:35;24.30;;;13.20;;
35757;SDS011;21879;50.110;18.900;2023-02-10T00:44:00;21.10;;;14.60;;
35757;SDS011;21879;50.110;18.900;2023-02-10T00:54:24;23.10;;;12.50;;
35757;SDS011;21879;50.110;18.900;2023-02-10T01:04:48;24.20;;;12.70;;
35757;SDS011;21879;50.110;18.900;2023-02-10T01:15:13;27.00;;;14.90;;
35757;SDS011;21879;50.110;18.900;2023-02-10T01:25:37;21.30;;;12.70;;
35757;SDS011;21879;50.110;18.900;2023-02-10T01:36:03;21.20;;;11.70;;
35757;SDS011;21879;50.110;18.900;2023-02-10T01:46:29;23.80;;;12.90;;
35757;SDS011;21879;50.110;18.900;2023-02-10T01:56:55;24.60;;;12.10;;
35757;SDS011;21879;50.110;18.900;2023-02-10T02:07:20;21.50;;;13.00;;
35757;SDS011;21879;50.110;18.900;2023-02-10T02:17:50;33.10;;;17.40;;
35757;SDS011;21879;50.110;18.900;2023-02-10T02:28:23;23.90;;;13.30;;
35757;SDS011;21879;50.110;18.900;2023-02-10T02:38:58;26.00;;;13.00;;
35757;SDS011;21879;50.110;18.900;2023-02-10T02:49:26;19.10;;;11.00;;
35757;SDS011;21879;50.110;18.900;2023-02-10T03:00:02;20.40;;;10.10;;
35757;SDS011;21879;50.110;18.900;2023-02-10T03:10:29;20.60;;;12.10;;
35757;SDS011;21879;50.110;18.900;2023-02-10T03:20:53;19.30;;;12.00;;
35757;SDS011;21879;50.110;18.900;2023-02-10T03:31:18;23.70;;;12.60;;
35757;SDS011;21879;50.110;18.900;2023-02-10T03:41:42;21.90;;;11.60;;
35757;SDS011;21879;50.110;18.900;2023-02-10T03:52:06;21.10;;;12.40;;
35757;SDS011;21879;50.110;18.900;2023-02-10T04:02:30;18.20;;;10.80;;
35757;SDS011;21879;50.110;18.900;2023-02-10T04:12:55;20.30;;;11.50;;
35757;SDS011;21879;50.110;18.900;2023-02-10T04:23:19;17.60;;;11.00;;
35757;SDS011;21879;50.110;18.900;2023-02-10T04:33:43;23.80;;;13.90;;
35757;SDS011;21879;50.110;18.900;2023-02-10T04:44:07;23.20;;;13.00;;
35757;SDS011;21879;50.110;18.900;2023-02-10T04:54:32;23.40;;;15.10;;
35757;SDS011;21879;50.110;18.900;2023-02-10T05:04:56;21.00;;;14.10;;
35757;SDS011;21879;50.110;18.900;2023-02-10T05:15:20;20.70;;;11.80;;
35757;SDS011;21879;50.110;18.900;2023-02-10T05:25:44;25.90;;;14.00;;
35757;SDS011;21879;50.110;18.900;2023-02-10T05:36:10;24.60;;;14.50;;
35757;SDS011;21879;50.110;18.900;2023-02-10T05:46:34;25.40;;;15.60;;
35757;SDS011;21879;50.110;18.900;2023-02-10T05:56:59;24.00;;;13.50;;
35757;SDS011;21879;50.110;18.900;2023-02-10T06:07:23;20.20;;;12.10;;
35757;SDS011;21879;50.110;18.900;2023-02-10T06:17:47;27.00;;;15.80;;
35757;SDS011;21879;50.110;18.900;2023-02-10T06:28:12;24.40;;;15.10;;
35757;SDS011;21879;50.110;18.900;2023-02-10T06:38:37;23.50;;;14.70;;
35757;SDS011;21879;50.110;18.900;2023-02-10T06:49:01;24.80;;;15.00;;
35757;SDS011;21879;50.110;18.900;2023-02-10T06:59:25;26.00;;;15.60;;
35757;SDS011;21879;50.110;18.900;2023-02-10T07:09:50;32.00;;;17.30;;
35757;SDS011;21879;50.110;18.900;2023-02-10T07:20:15;22.60;;;12.90;;
35757;SDS011;21879;50.110;18.900;2023-02-10T07:30:40;25.20;;;13.30;;
35757;SDS011;21879;50.110;18.900;2023-02-10T07:41:05;24.80;;;13.80;;
35757;SDS011;21879;50.110;18.900;2023-02-10T07:51:29;27.30;;;16.30;;
35757;SDS011;21879;50.110;18.900;2023-02-10T08:01:54;24.50;;;12.80;;
35757;SDS011;21879;50.110;18.900;2023-02-10T08:12:18;20.00;;;12.30;;
35757;SDS011;21879;50.110;18.900;2023-02-10T08:22:42;21.40;;;13.70;;
35757;SDS011;21879;50.110;18.900;2023-02-10T08:33:07;25.60;;;13.90;;
35757;SDS011;21879;50.110;18.900;2023-02-10T08:43:31;23.30;;;12.80;;
35757;SDS011;21879;50.110;18.900;2023-02-10T08:53:56;24.30;;;12.20;;
35757;SDS011;21879;50.110;18.900;2023-02-10T09:04:20;24.20;;;13.70;;
35757;SDS011;21879;50.110;18.900;2023-02-10T09:14:44;28.90;;;12.50;;
35757;SDS011;21879;50.110;18.900;2023-02-10T09:25:09;25.50;;;13.10;;
35757;SDS011;21879;50.110;18.900;2023-02-10T09:35:33;23.70;;;14.20;;
35757;SDS011;21879;50.110;18.900;2023-02-10T09:45:59;24.70;;;13.60;;
35757;SDS011;21879;50.110;18.900;2023-02-10T09:56:32;20.10;;;12.50;;
35757;SDS011;21879;50.110;18.900;2023-02-10T10:06:58;25.30;;;12.90;;
35757;SDS011;21879;50.110;18.900;2023-02-10T10:17:38;22.30;;;13.00;;
35757;SDS011;21879;50.110;18.900;2023-02-10T10:28:12;21.30;;;13.60;;
35757;SDS011;21879;50.110;18.900;2023-02-10T10:38:48;24.20;;;13.80;;
35757;SDS011;21879;50.110;18.900;2023-02-10T10:49:14;19.00;;;12.40;;
35757;SDS011;21879;50.110;18.900;2023-02-10T10:59:40;19.00;;;11.20;;
35757;SDS011;21879;50.110;18.900;2023-02-10T11:10:18;26.10;;;13.60;;
35757;SDS011;21879;50.110;18.900;2023-02-10T11:20:52;22.90;;;12.90;;
35757;SDS011;21879;50.110;18.900;2023-02-10T11:31:27;26.20;;;15.60;;
35757;SDS011;21879;50.110;18.900;2023-02-10T11:41:55;26.70;;;15.90;;
35757;SDS011;21879;50.110;18.900;2023-02-10T11:52:20;28.20;;;15.00;;
35757;SDS011;21879;50.110;18.900;2023-02-10T12:02:53;29.50;;;18.10;;
35757;SDS011;21879;50.110;18.900;2023-02-10T12:13:39;24.20;;;15.40;;
35757;SDS011;21879;50.110;18.900;2023-02-10T12:24:22;23.10;;;13.70;;
35757;SDS011;21879;50.110;18.900;2023-02-10T12:35:05;23.20;;;14.40;;
35757;SDS011;21879;50.110;18.900;2023-02-10T12:45:40;32.20;;;16.80;;
35757;SDS011;21879;50.110;18.900;2023-02-10T12:56:08;34.80;;;21.00;;
35757;SDS011;21879;50.110;18.900;2023-02-10T13:06:40;29.50;;;16.90;;
35757;SDS011;21879;50.110;18.900;2023-02-10T13:17:08;30.50;;;18.30;;
35757;SDS011;21879;50.110;18.900;2023-02-10T13:27:37;28.80;;;16.40;;
35757;SDS011;21879;50.110;18.900;2023-02-10T13:38:14;25.70;;;14.90;;
35757;SDS011;21879;50.110;18.900;2023-02-10T13:48:41;26.20;;;14.60;;
35757;SDS011;21879;50.110;18.900;2023-02-10T14:10:00;27.20;;;16.10;;
35757;SDS011;21879;50.110;18.900;2023-02-10T14:20:32;35.70;;;19.10;;
35757;SDS011;21879;50.110;18.900;2023-02-10T14:31:00;29.00;;;16.00;;
35757;SDS011;21879;50.110;18.900;2023-02-10T14:41:28;28.80;;;17.30;;
35757;SDS011;21879;50.110;18.900;2023-02-10T14:51:55;36.80;;;19.40;;
35757;SDS011;21879;50.110;18.900;2023-02-10T15:02:21;32.40;;;17.80;;
35757;SDS011;21879;50.110;18.900;2023-02-10T15:12:47;43.50;;;26.10;;
35757;SDS011;21879;50.110;18.900;2023-02-10T15:23:14;38.10;;;25.30;;
35757;SDS011;21879;50.110;18.900;2023-02-10T15:33:54;35.00;;;21.90;;
35757;SDS011;21879;50.110;18.900;2023-02-10T15:55:04;37.10;;;23.60;;
35757;SDS011;21879;50.110;18.900;2023-02-10T16:05:37;38.50;;;22.60;;
35757;SDS011;21879;50.110;18.900;2023-02-10T16:16:03;40.20;;;23.10;;
35757;SDS011;21879;50.110;18.900;2023-02-10T16:26:35;37.40;;;22.50;;
35757;SDS011;21879;50.110;18.900;2023-02-10T16:37:01;38.30;;;21.50;;
35757;SDS011;21879;50.110;18.900;2023-02-10T16:47:26;38.40;;;23.30;;
35757;SDS011;21879;50.110;18.900;2023-02-10T16:57:51;43.30;;;25.70;;
35757;SDS011;21879;50.110;18.900;2023-02-10T17:08:16;41.60;;;25.40;;
35757;SDS011;21879;50.110;18.900;2023-02-10T17:18:41;41.80;;;25.80;;
35757;SDS011;21879;50.110;18.900;2023-02-10T17:29:06;41.40;;;25.30;;
35757;SDS011;21879;50.110;18.900;2023-02-10T17:39:30;43.50;;;24.60;;
35757;SDS011;21879;50.110;18.900;2023-02-10T17:49:59;37.70;;;22.30;;
35757;SDS011;21879;50.110;18.900;2023-02-10T18:00:23;40.00;;;23.70;;
35757;SDS011;21879;50.110;18.900;2023-02-10T18:10:48;32.60;;;18.50;;
35757;SDS011;21879;50.110;18.900;2023-02-10T18:21:17;43.40;;;27.70;;
35757;SDS011;21879;50.110;18.900;2023-02-10T18:31:43;41.40;;;24.60;;
35757;SDS011;21879;50.110;18.900;2023-02-10T18:42:08;37.60;;;23.00;;
35757;SDS011;21879;50.110;18.900;2023-02-10T18:52:32;36.30;;;23.30;;
35757;SDS011;21879;50.110;18.900;2023-02-10T19:02:57;35.10;;;22.10;;
35757;SDS011;21879;50.110;18.900;2023-02-10T19:13:22;38.50;;;23.00;;
35757;SDS011;21879;50.110;18.900;2023-02-10T19:23:47;38.20;;;22.90;;
35757;SDS011;21879;50.110;18.900;2023-02-10T19:34:12;41.40;;;25.10;;
35757;SDS011;21879;50.110;18.900;2023-02-10T19:44:37;35.90;;;21.00;;
35757;SDS011;21879;50.110;18.900;2023-02-10T19:55:02;34.10;;;22.60;;
35757;SDS011;21879;50.110;18.900;2023-02-10T20:05:26;40.50;;;23.80;;
35757;SDS011;21879;50.110;18.900;2023-02-10T20:15:51;40.80;;;25.30;;
35757;SDS011;21879;50.110;18.900;2023-02-10T20:26:16;40.60;;;25.60;;
35757;SDS011;21879;50.110;18.900;2023-02-10T20:36:41;42.60;;;26.40;;
35757;SDS011;21879;50.110;18.900;2023-02-10T20:47:06;40.30;;;25.20;;
35757;SDS011;21879;50.110;18.900;2023-02-10T20:57:31;40.60;;;25.20;;
35757;SDS011;21879;50.110;18.900;2023-02-10T21:07:55;49.40;;;26.80;;
35757;SDS011;21879;50.110;18.900;2023-02-10T21:18:19;46.00;;;27.40;;
35757;SDS011;21879;50.110;18.900;2023-02-10T21:28:44;49.30;;;24.30;;
35757;SDS011;21879;50.110;18.900;2023-02-10T21:39:09;35.70;;;21.20;;
35757;SDS011;21879;50.110;18.900;2023-02-10T21:49:35;37.70;;;23.20;;
35757;SDS011;21879;50.110;18.900;2023-02-10T22:00:00;43.30;;;26.70;;
35757;SDS011;21879;50.110;18.900;2023-02-10T22:10:25;46.60;;;26.60;;
35757;SDS011;21879;50.110;18.900;2023-02-10T22:20:49;46.00;;;26.20;;
35757;SDS011;21879;50.110;18.900;2023-02-10T22:31:14;38.20;;;25.90;;
35757;SDS011;21879;50.110;18.900;2023-02-10T22:41:41;37.90;;;25.20;;
35757;SDS011;21879;50.110;18.900;2023-02-10T22:52:07;47.50;;;25.90;;
35757;SDS011;21879;50.110;18.900;2023-02-10T23:02:32;46.70;;;27.10;;
35757;SDS011;21879;50.110;18.900;2023-02-10T23:12:57;48.70;;;29.50;;
35757;SDS011;21879;50.110;18.900;2023-02-10T23:23:23;46.30;;;28.50;;
35757;SDS011;21879;50.110;18.900;2023-02-10T23:33:48;47.00;;;29.70;;
35757;SDS011;21879;50.110;18.900;2023-02-10T23:44:14;34.80;;;23.40;;
35757;SDS011;21879;50.110;18.900;2023-02-10T23:54:38;54.20;;;29.20;;
